Millenium Air

Millenium Air Since 1998



 METAR AND TAF INFORMATION
METAR FOR LGST
ADDS - METARS form results

(2259 UTC 06 March 2021)
Data provider http://aviationweather.gov/metar/data/
 
Forecast for: LGST (SITIA AIRPORT , GR)
Text: TAF LGST 062000Z 0621/0706 25006KT 9999 FEW025 SCT080
Forecast period: 2100 UTC 06 March 2021 to 0600 UTC 07 March 2021
Forecast type: FROM: standard forecast or significant change
Winds: from the WSW (250 degrees) at 7 MPH (6 knots; 3.1 m/s)
Visibility: 6 or more miles (10+ km)
Ceiling: at least 12,000 feet AGL
Clouds: few clouds at 2500 feet AGL
scattered clouds at 8000 feet AGL
Weather: no significant weather forecast for this period

 AIRPORT MAP

 RUNWAY INFORMATION
Runway 05 Runway length 6804 ft Runway width 148 ft
Runway elevation 376 ft Runway displaced threshold 0 ft Runway heading 51
Runway 23 Runway length 6804 ft Runway width 148 ft
Runway elevation 316 ft Runway displaced threshold 0 ft Runway heading 231

 AIRPORT FREQUENCIES
Type A/G Name RDO Frequency 563.7 MHZ
Type AFIS Name INFO Frequency 122.6 MHZ

 AIRPORT NEAR NAVIGATION AIDS
Type VOR-DME Name Sitia Frequency 112900 KHZ
Type VOR-DME Name Sitia Frequency 113300 KHZ